createdAt,value
2023-04-17T00:02:39.826Z,99.90
2023-04-17T00:07:42.161Z,99.90
2023-04-17T00:12:43.999Z,99.90
2023-04-17T00:17:45.821Z,99.90
2023-04-17T00:22:47.797Z,99.90
2023-04-17T00:27:50.617Z,99.90
2023-04-17T00:32:52.649Z,99.90
2023-04-17T00:37:54.492Z,99.90
2023-04-17T00:43:04.093Z,99.90
2023-04-17T00:48:07.596Z,99.90
2023-04-17T00:53:09.507Z,99.90
2023-04-17T00:58:11.862Z,99.90
2023-04-17T01:03:14.447Z,99.90
2023-04-17T01:08:16.553Z,99.90
2023-04-17T01:13:18.470Z,99.90
2023-04-17T01:18:20.265Z,99.90
2023-04-17T01:23:22.045Z,99.90
2023-04-17T01:28:23.817Z,99.90
2023-04-17T01:33:25.562Z,99.90
2023-04-17T01:38:27.619Z,99.90
2023-04-17T01:43:29.328Z,99.90
2023-04-17T01:48:31.296Z,99.90
2023-04-17T01:53:33.986Z,99.90
2023-04-17T01:58:35.894Z,99.90
2023-04-17T02:03:37.914Z,99.90
2023-04-17T02:08:39.816Z,99.90
2023-04-17T02:13:41.738Z,99.90
2023-04-17T02:18:43.578Z,99.90
2023-04-17T02:23:45.510Z,99.90
2023-04-17T02:28:47.263Z,99.90
2023-04-17T02:33:48.960Z,99.90
2023-04-17T02:38:50.839Z,99.90
2023-04-17T02:43:52.584Z,99.90
2023-04-17T02:48:54.568Z,99.90
2023-04-17T02:53:56.526Z,99.90
2023-04-17T02:58:58.272Z,99.90
2023-04-17T03:04:00.308Z,99.90
2023-04-17T03:09:03.022Z,99.90
2023-04-17T03:14:04.789Z,99.90
2023-04-17T03:19:06.816Z,99.90
2023-04-17T03:24:11.267Z,99.90
2023-04-17T03:29:13.340Z,99.90
2023-04-17T03:34:15.399Z,99.90
2023-04-17T03:39:17.163Z,99.90
2023-04-17T03:44:19.198Z,99.90
2023-04-17T03:49:20.914Z,99.90
2023-04-17T03:54:22.719Z,99.90
2023-04-17T03:59:24.940Z,99.90
2023-04-17T04:04:26.907Z,99.90
2023-04-17T04:09:28.874Z,99.90
2023-04-17T04:14:30.576Z,99.90
2023-04-17T04:19:32.514Z,99.90
2023-04-17T04:24:35.253Z,99.90
2023-04-17T04:29:37.892Z,99.90
2023-04-17T04:34:41.998Z,99.90
2023-04-17T04:39:43.982Z,99.90
2023-04-17T04:44:45.737Z,99.90
2023-04-17T04:49:47.463Z,99.90
2023-04-17T04:54:49.344Z,99.90
2023-04-17T04:59:51.142Z,99.90
2023-04-17T05:04:53.047Z,99.90
2023-04-17T05:09:54.878Z,99.90
2023-04-17T05:14:56.597Z,99.90
2023-04-17T05:19:58.631Z,99.90
2023-04-17T05:25:00.398Z,99.90
2023-04-17T05:30:02.182Z,99.90
2023-04-17T05:35:05.244Z,90.30
2023-04-17T05:40:07.837Z,63.00
2023-04-17T05:45:21.451Z,67.00
2023-04-17T05:50:24.875Z,73.80
2023-04-17T05:55:26.683Z,65.60
2023-04-17T06:00:28.863Z,72.90
2023-04-17T06:05:30.978Z,73.80
2023-04-17T06:10:33.814Z,70.10
2023-04-17T06:15:35.824Z,67.00
2023-04-17T06:20:39.991Z,70.80
2023-04-17T06:25:42.220Z,74.60
2023-04-17T06:30:44.024Z,75.80
2023-04-17T06:35:45.896Z,74.30
2023-04-17T06:40:47.877Z,68.00
2023-04-17T06:45:49.676Z,51.60
2023-04-17T06:50:51.591Z,52.80
2023-04-17T06:55:54.204Z,42.90
2023-04-17T07:00:56.068Z,40.90
2023-04-17T07:05:57.742Z,39.50
2023-04-17T07:11:00.116Z,51.20
2023-04-17T07:16:02.181Z,54.90
2023-04-17T07:21:04.513Z,43.30
2023-04-17T07:26:06.498Z,44.00
2023-04-17T07:31:08.904Z,38.50
2023-04-17T07:36:12.074Z,43.10
2023-04-17T07:41:13.955Z,41.60
2023-04-17T07:46:16.121Z,41.20
2023-04-17T07:51:18.061Z,39.80
2023-04-17T07:56:19.753Z,36.80
2023-04-17T08:01:21.742Z,33.50
2023-04-17T08:06:23.562Z,34.70
2023-04-17T08:11:26.006Z,40.10
2023-04-17T08:16:28.095Z,33.50
2023-04-17T08:21:29.930Z,30.00
2023-04-17T08:26:32.170Z,36.10
2023-04-17T08:31:36.689Z,33.20
2023-04-17T08:36:38.379Z,35.50
2023-04-17T08:41:49.179Z,35.50
2023-04-17T08:46:51.657Z,37.20
2023-04-17T08:51:53.490Z,40.70
2023-04-17T08:56:55.327Z,39.40
2023-04-17T09:02:05.044Z,42.30
2023-04-17T09:07:08.344Z,45.80
2023-04-17T09:12:11.308Z,52.60
2023-04-17T09:17:17.241Z,49.30
2023-04-17T09:22:21.551Z,50.50
2023-04-17T09:27:24.741Z,52.40
2023-04-17T09:32:27.456Z,53.40
2023-04-17T09:37:52.311Z,57.10
2023-04-17T09:43:02.144Z,56.80
2023-04-17T09:48:07.136Z,57.90
2023-04-17T09:53:09.011Z,57.10
2023-04-17T09:58:11.336Z,57.80
2023-04-17T10:03:15.633Z,58.20
2023-04-17T10:08:18.632Z,60.40
2023-04-17T10:13:26.940Z,59.10
2023-04-17T10:18:28.982Z,56.30
2023-04-17T10:23:33.162Z,56.30
2023-04-17T10:28:55.502Z,55.10
2023-04-17T10:33:57.268Z,57.20
2023-04-17T10:39:13.552Z,60.30
2023-04-17T10:44:17.798Z,59.50
2023-04-17T10:49:21.978Z,59.50
2023-04-17T10:54:23.916Z,60.10
2023-04-17T10:59:30.008Z,60.30
2023-04-17T11:04:33.761Z,64.20
2023-04-17T11:09:36.226Z,64.50
2023-04-17T11:14:42.592Z,67.70
2023-04-17T11:19:45.187Z,66.70
2023-04-17T11:24:54.090Z,65.70
2023-04-17T11:29:55.904Z,65.80
2023-04-17T11:34:58.026Z,65.70
2023-04-17T11:40:09.104Z,65.90
2023-04-17T11:45:11.478Z,68.00
2023-04-17T11:50:16.131Z,66.60
2023-04-17T11:55:18.049Z,66.00
2023-04-17T12:00:21.826Z,64.10
2023-04-17T12:05:24.598Z,61.50
2023-04-17T12:10:42.754Z,63.60
2023-04-17T12:15:44.658Z,63.20
2023-04-17T12:20:46.521Z,60.90
2023-04-17T12:25:48.428Z,60.40
2023-04-17T12:30:50.207Z,59.40
2023-04-17T12:35:52.136Z,59.50
2023-04-17T12:40:54.008Z,61.90
2023-04-17T12:45:56.199Z,60.50
2023-04-17T12:50:58.047Z,59.50
2023-04-17T12:55:59.805Z,61.30
2023-04-17T13:01:01.663Z,61.40
2023-04-17T13:06:03.649Z,64.00
2023-04-17T13:11:05.662Z,62.00
2023-04-17T13:16:07.626Z,60.90
2023-04-17T13:21:09.400Z,61.20
2023-04-17T13:26:11.202Z,63.60
2023-04-17T13:31:14.196Z,64.00
2023-04-17T13:36:16.054Z,64.00
2023-04-17T13:41:17.797Z,64.10
2023-04-17T13:46:19.532Z,64.00
2023-04-17T13:51:21.354Z,65.00
2023-04-17T13:56:23.507Z,65.80
2023-04-17T14:01:25.591Z,64.80
2023-04-17T14:06:32.466Z,65.00
2023-04-17T14:11:34.248Z,65.90
2023-04-17T14:16:36.072Z,67.30
2023-04-17T14:21:37.872Z,67.70
2023-04-17T14:26:40.156Z,69.10
2023-04-17T14:31:41.899Z,70.20
2023-04-17T14:36:43.857Z,70.70
2023-04-17T14:41:45.815Z,72.90
2023-04-17T14:46:48.669Z,73.30
2023-04-17T14:51:50.452Z,71.40
2023-04-17T14:56:52.200Z,70.00
2023-04-17T15:01:54.274Z,69.10
2023-04-17T15:06:56.135Z,69.20
2023-04-17T15:11:57.961Z,69.70
2023-04-17T15:17:02.438Z,70.60
2023-04-17T15:22:04.393Z,71.20
2023-04-17T15:27:06.309Z,70.70
2023-04-17T15:32:08.063Z,70.40
2023-04-17T15:37:11.158Z,70.60
2023-04-17T15:42:12.955Z,70.80
2023-04-17T15:47:14.889Z,71.00
2023-04-17T15:52:16.671Z,73.90
2023-04-17T15:57:18.566Z,76.50
2023-04-17T16:02:21.280Z,78.40
2023-04-17T16:07:24.314Z,80.80
2023-04-17T16:12:28.112Z,81.80
2023-04-17T16:17:29.938Z,82.40
2023-04-17T16:22:31.706Z,83.80
2023-04-17T16:27:33.793Z,84.90
2023-04-17T16:32:36.008Z,86.00
2023-04-17T16:37:37.749Z,87.50
2023-04-17T16:42:40.631Z,89.10
2023-04-17T16:47:42.516Z,90.30
2023-04-17T16:52:44.295Z,91.10
2023-04-17T16:57:47.859Z,91.80
2023-04-17T17:02:49.705Z,92.50
2023-04-17T17:07:51.533Z,92.90
2023-04-17T17:12:53.368Z,93.60
2023-04-17T17:17:55.292Z,94.40
2023-04-17T17:22:57.128Z,95.00
2023-04-17T17:27:58.986Z,95.40
2023-04-17T17:33:00.953Z,95.90
2023-04-17T17:38:02.695Z,96.60
2023-04-17T17:43:04.445Z,97.40
2023-04-17T17:48:06.368Z,98.90
2023-04-17T17:53:08.502Z,99.90
2023-04-17T17:58:10.394Z,99.90
2023-04-17T18:03:15.593Z,99.90
2023-04-17T18:08:17.614Z,99.90
2023-04-17T18:13:19.393Z,99.90
2023-04-17T18:18:21.192Z,99.90
2023-04-17T18:23:23.001Z,99.90
2023-04-17T18:28:25.690Z,99.90
2023-04-17T18:33:28.777Z,99.90
2023-04-17T18:38:31.099Z,99.90
2023-04-17T18:43:32.971Z,99.90
2023-04-17T18:48:34.828Z,99.90
2023-04-17T18:53:36.886Z,99.90
2023-04-17T18:58:40.278Z,99.90
2023-04-17T19:03:42.184Z,99.90
2023-04-17T19:08:44.601Z,99.90
2023-04-17T19:13:46.455Z,99.90
2023-04-17T19:18:48.288Z,99.90
2023-04-17T19:23:51.479Z,99.90
2023-04-17T19:28:53.531Z,99.90
2023-04-17T19:33:57.515Z,99.90
2023-04-17T19:38:59.848Z,99.90
2023-04-17T19:44:01.685Z,99.90
2023-04-17T19:49:03.432Z,99.90
2023-04-17T19:54:05.905Z,99.90
2023-04-17T19:59:12.307Z,99.90
2023-04-17T20:04:16.602Z,99.90
2023-04-17T20:09:19.238Z,99.90
2023-04-17T20:14:21.214Z,99.90
2023-04-17T20:19:23.460Z,99.90
2023-04-17T20:24:25.338Z,99.90
2023-04-17T20:29:27.664Z,99.90
2023-04-17T20:34:34.979Z,99.90
2023-04-17T20:39:36.786Z,99.90
2023-04-17T20:44:38.485Z,99.90
2023-04-17T20:49:40.259Z,99.90
2023-04-17T20:54:41.984Z,99.90
2023-04-17T20:59:43.829Z,99.90
2023-04-17T21:04:45.694Z,99.90
2023-04-17T21:09:47.465Z,99.90
2023-04-17T21:14:49.172Z,99.90
2023-04-17T21:19:50.922Z,99.90
2023-04-17T21:24:52.706Z,99.90
2023-04-17T21:29:54.589Z,99.90
2023-04-17T21:34:56.303Z,99.90
2023-04-17T21:39:58.028Z,99.90
2023-04-17T21:44:59.841Z,99.90
2023-04-17T21:50:01.546Z,99.90
2023-04-17T21:55:05.630Z,99.90
2023-04-17T22:00:11.608Z,99.90
2023-04-17T22:05:14.711Z,99.90
2023-04-17T22:10:16.439Z,99.90
2023-04-17T22:15:18.396Z,99.90
2023-04-17T22:20:20.682Z,99.90
2023-04-17T22:25:22.445Z,99.90
2023-04-17T22:30:24.513Z,99.90
2023-04-17T22:35:27.098Z,99.90
2023-04-17T22:40:30.149Z,99.90
2023-04-17T22:45:32.143Z,99.90
2023-04-17T22:50:34.225Z,99.90
2023-04-17T22:55:36.116Z,99.90
2023-04-17T23:00:37.927Z,99.90
2023-04-17T23:05:39.732Z,99.90
2023-04-17T23:10:41.613Z,99.90
2023-04-17T23:15:43.466Z,99.90
2023-04-17T23:20:45.491Z,99.90
2023-04-17T23:25:47.281Z,99.90
2023-04-17T23:30:49.345Z,99.90
2023-04-17T23:35:51.182Z,99.90
2023-04-17T23:40:52.965Z,99.90
2023-04-17T23:45:54.729Z,99.90
2023-04-17T23:50:56.475Z,99.90
2023-04-17T23:55:58.189Z,99.90
